Time;durP1;ratioP1;P1;durP2;ratioP2;P2;SDS_P1;SDS_P2;PMS_P1;PMS_P2;Temp;Humidity;BMP_temperature;BMP_pressure;BME280_temperature;BME280_humidity;BME280_pressure;Samples;Min_cycle;Max_cycle;Signal;HPM_P1;HPM_P2
2022/07/28 00:01:51;;;;;;;12.52;5.55;;;;;;;15.96;100.00;98694.97;5115017;28;20076;-94
2022/07/28 00:04:16;;;;;;;14.73;6.00;;;;;;;15.91;100.00;98686.34;5106219;28;20109;-92
2022/07/28 00:06:42;;;;;;;15.35;6.05;;;;;;;15.85;100.00;98685.66;5100925;28;20051;-92
2022/07/28 00:09:08;;;;;;;12.85;5.78;;;;;;;16.03;100.00;98692.09;5096163;28;20028;-91
2022/07/28 00:11:35;;;;;;;14.25;6.05;;;;;;;15.63;100.00;98698.56;5096490;28;20031;-92
2022/07/28 00:14:01;;;;;;;14.73;5.60;;;;;;;15.74;100.00;98708.75;5098535;28;20059;-95
2022/07/28 00:16:26;;;;;;;12.52;6.05;;;;;;;15.40;100.00;98695.78;5104433;27;20159;-94
2022/07/28 00:18:52;;;;;;;12.25;5.22;;;;;;;15.72;100.00;98702.69;5096898;28;20027;-93
2022/07/28 00:21:18;;;;;;;11.52;5.20;;;;;;;15.76;100.00;98696.41;5095240;28;20075;-95
2022/07/28 00:23:43;;;;;;;16.90;6.20;;;;;;;15.85;100.00;98693.53;5094944;28;20294;-94
2022/07/28 00:26:10;;;;;;;14.50;6.78;;;;;;;15.84;100.00;98688.34;5098164;28;20459;-93
2022/07/28 00:28:36;;;;;;;16.17;6.10;;;;;;;15.78;100.00;98681.47;5095420;28;20023;-94
2022/07/28 00:31:03;;;;;;;15.00;6.95;;;;;;;15.68;100.00;98693.16;5091568;28;20046;-94
2022/07/28 00:33:28;;;;;;;11.27;5.93;;;;;;;15.98;100.00;98680.00;5095098;28;20031;-94
2022/07/28 00:35:54;;;;;;;14.40;5.90;;;;;;;16.02;100.00;98664.06;5091766;28;20028;-95
2022/07/28 00:38:23;;;;;;;12.15;4.63;;;;;;;15.80;100.00;98663.03;5090937;28;20042;-91
2022/07/28 00:43:34;;;;;;;10.43;4.07;;;;;;;15.66;100.00;98673.97;5099085;28;20515;-93
2022/07/28 00:45:59;;;;;;;9.20;4.13;;;;;;;15.81;100.00;98667.38;5091408;28;20047;-92
2022/07/28 00:48:25;;;;;;;9.68;4.25;;;;;;;15.97;100.00;98649.34;5093704;28;20402;-92
2022/07/28 00:50:51;;;;;;;10.93;4.68;;;;;;;15.79;100.00;98654.28;5093708;28;20413;-95
2022/07/28 00:53:17;;;;;;;10.65;4.28;;;;;;;16.33;100.00;98636.72;5094706;28;20110;-92
2022/07/28 00:55:42;;;;;;;11.73;4.45;;;;;;;15.59;100.00;98628.59;5094939;28;20506;-92
2022/07/28 00:58:08;;;;;;;12.32;4.80;;;;;;;15.50;100.00;98648.16;5093129;28;20528;-95
2022/07/28 01:00:34;;;;;;;9.77;4.30;;;;;;;14.90;100.00;98664.81;5091696;27;20035;-96
2022/07/28 01:03:00;;;;;;;11.55;4.57;;;;;;;15.75;100.00;98652.63;5094053;28;20523;-93
2022/07/28 01:05:38;;;;;;;9.43;4.53;;;;;;;15.40;100.00;98654.59;5094251;28;20415;-94
2022/07/28 01:08:12;;;;;;;10.68;4.60;;;;;;;15.19;100.00;98672.69;5096937;28;20502;-95
2022/07/28 01:11:00;;;;;;;10.18;4.88;;;;;;;15.45;100.00;98659.69;5089796;28;20035;-94
2022/07/28 01:13:41;;;;;;;11.90;4.32;;;;;;;15.75;100.00;98647.34;5096658;28;20031;-93
2022/07/28 01:16:07;;;;;;;13.07;4.50;;;;;;;15.70;100.00;98638.78;5093362;28;20027;-93
2022/07/28 01:18:52;;;;;;;9.32;4.07;;;;;;;15.74;100.00;98634.25;5093601;28;20498;-95
2022/07/28 01:21:27;;;;;;;10.18;3.95;;;;;;;15.68;100.00;98635.31;5093770;28;20063;-93
2022/07/28 01:24:17;;;;;;;10.38;4.32;;;;;;;15.83;100.00;98639.28;5095317;28;20023;-92
2022/07/28 01:27:03;;;;;;;10.85;4.47;;;;;;;15.85;100.00;98638.31;5093260;28;20044;-93
2022/07/28 01:30:00;;;;;;;9.25;4.18;;;;;;;15.65;100.00;98630.16;5093260;28;20028;-93
2022/07/28 01:32:30;;;;;;;10.75;5.00;;;;;;;15.92;100.00;98643.38;5094309;28;20027;-93
2022/07/28 01:35:17;;;;;;;10.07;5.03;;;;;;;15.77;100.00;98639.41;5099943;28;20118;-93
2022/07/28 01:37:51;;;;;;;11.02;4.47;;;;;;;15.88;100.00;98634.72;5089482;28;20023;-93
2022/07/28 01:40:18;;;;;;;;;;;;;;;16.82;100.00;98607.75;5094957;28;20483;-92
2022/07/28 01:42:47;;;;;;;10.73;4.00;;;;;;;15.81;100.00;98631.44;5108960;27;19916;-92
2022/07/28 01:45:14;;;;;;;9.20;4.35;;;;;;;15.32;100.00;98639.06;5094223;28;20028;-95
2022/07/28 01:47:42;;;;;;;11.35;4.05;;;;;;;15.32;100.00;98632.94;5091488;28;20052;-93
2022/07/28 01:50:10;;;;;;;10.00;3.83;;;;;;;15.32;100.00;98643.44;5091815;28;20761;-95
2022/07/28 01:52:36;;;;;;;11.07;4.40;;;;;;;14.75;100.00;98651.22;5093185;28;20558;-94
2022/07/28 01:55:03;;;;;;;9.80;4.00;;;;;;;14.88;100.00;98642.97;5087961;28;20048;-94
2022/07/28 01:57:31;;;;;;;9.27;4.07;;;;;;;14.94;100.00;98640.19;5093684;28;20064;-94
2022/07/28 01:59:59;;;;;;;10.60;4.10;;;;;;;14.81;100.00;98655.44;5092061;28;20428;-94
2022/07/28 02:02:26;;;;;;;9.00;4.00;;;;;;;14.93;100.00;98639.31;5090553;28;20039;-93
2022/07/28 02:04:54;;;;;;;11.02;3.67;;;;;;;14.98;100.00;98644.44;5088519;28;20398;-93
2022/07/28 02:07:22;;;;;;;9.45;3.97;;;;;;;15.01;100.00;98645.19;5092954;28;20035;-93
2022/07/28 02:09:52;;;;;;;9.13;3.60;;;;;;;14.98;100.00;98639.19;5098793;28;20028;-93
2022/07/28 02:12:19;;;;;;;9.55;4.00;;;;;;;15.46;100.00;98622.00;5090415;28;20027;-93
2022/07/28 02:14:48;;;;;;;11.48;3.92;;;;;;;14.96;100.00;98636.63;5089744;28;20066;-94
2022/07/28 02:17:20;;;;;;;11.45;3.88;;;;;;;14.78;100.00;98637.13;5091508;28;20067;-92
2022/07/28 02:19:47;;;;;;;9.02;3.55;;;;;;;15.01;100.00;98641.72;5096989;28;20146;-94
2022/07/28 02:22:15;;;;;;;9.68;3.17;;;;;;;14.65;100.00;98647.94;5095467;28;20023;-93
2022/07/28 02:24:43;;;;;;;11.57;3.58;;;;;;;14.78;100.00;98645.88;5094056;28;20032;-92
2022/07/28 02:27:18;;;;;;;9.25;3.53;;;;;;;14.67;100.00;98646.16;5093025;28;20135;-93
2022/07/28 02:29:51;;;;;;;9.77;3.22;;;;;;;14.68;100.00;98639.13;5093655;28;20027;-94
2022/07/28 02:32:30;;;;;;;10.05;3.53;;;;;;;14.78;100.00;98660.75;5088932;28;20027;-93
2022/07/28 02:35:05;;;;;;;9.93;3.85;;;;;;;14.75;100.00;98659.09;5092562;28;20031;-94
2022/07/28 02:37:36;;;;;;;11.23;4.32;;;;;;;14.79;100.00;98651.97;5092525;28;20036;-94
2022/07/28 02:40:03;;;;;;;11.68;4.38;;;;;;;14.94;100.00;98656.78;5090481;28;20031;-91
2022/07/28 02:42:32;;;;;;;15.73;4.20;;;;;;;15.43;100.00;98651.00;5083653;28;20044;-94
2022/07/28 02:45:00;;;;;;;11.73;4.30;;;;;;;15.08;100.00;98638.00;5092143;28;20111;-91
2022/07/28 02:47:30;;;;;;;9.98;4.40;;;;;;;14.67;100.00;98661.06;5089747;28;20034;-93
2022/07/28 02:49:59;;;;;;;9.90;4.60;;;;;;;13.79;100.00;98679.84;5087991;28;20050;-93
2022/07/28 02:52:27;;;;;;;13.02;5.18;;;;;;;14.49;100.00;98675.50;5092326;28;20056;-92
2022/07/28 02:54:54;;;;;;;11.55;4.57;;;;;;;14.27;100.00;98691.78;5093759;28;20059;-92
2022/07/28 02:57:21;;;;;;;12.38;4.57;;;;;;;14.36;100.00;98684.59;5088298;28;20067;-91
2022/07/28 02:59:49;;;;;;;9.63;4.70;;;;;;;14.23;100.00;98687.50;5090239;28;20033;-92
2022/07/28 03:02:40;;;;;;;11.32;4.55;;;;;;;14.25;100.00;98692.72;5095801;28;20669;-91
2022/07/28 03:05:10;;;;;;;12.27;4.70;;;;;;;14.21;100.00;98698.94;5092056;28;20028;-91
2022/07/28 03:07:36;;;;;;;11.95;4.53;;;;;;;13.97;100.00;98703.88;5094862;28;20357;-91
2022/07/28 03:10:02;;;;;;;10.18;4.65;;;;;;;14.12;100.00;98710.53;5094369;28;20034;-91
2022/07/28 03:12:28;;;;;;;10.57;4.47;;;;;;;14.36;100.00;98708.19;5093433;28;20023;-93
2022/07/28 03:14:54;;;;;;;9.63;4.20;;;;;;;14.10;100.00;98718.44;5091029;28;20039;-91
2022/07/28 03:17:20;;;;;;;11.02;4.30;;;;;;;14.40;100.00;98707.22;5090508;28;20399;-90
2022/07/28 03:19:46;;;;;;;10.90;3.70;;;;;;;14.36;100.00;98698.56;5085871;28;20806;-90
2022/07/28 03:22:11;;;;;;;13.13;4.10;;;;;;;14.08;100.00;98704.47;5086305;28;20032;-90
2022/07/28 03:24:57;;;;;;;10.10;3.65;;;;;;;14.15;100.00;98698.22;5089988;28;20104;-90
2022/07/28 03:27:27;;;;;;;7.80;3.13;;;;;;;14.26;100.00;98699.69;5090790;28;20537;-91
2022/07/28 03:30:08;;;;;;;9.07;2.83;;;;;;;13.74;100.00;98691.34;5086529;28;20063;-92
2022/07/28 03:32:37;;;;;;;8.60;2.70;;;;;;;13.76;100.00;98702.63;5093856;28;20023;-92
2022/07/28 03:35:04;;;;;;;8.68;2.42;;;;;;;13.92;100.00;98696.13;5089262;28;20118;-92
2022/07/28 03:37:35;;;;;;;8.57;2.33;;;;;;;13.82;100.00;98710.38;5094488;28;20110;-91
2022/07/28 03:40:02;;;;;;;7.60;2.53;;;;;;;13.99;100.00;98709.97;5089660;28;20627;-91
2022/07/28 03:42:30;;;;;;;7.70;2.40;;;;;;;13.54;100.00;98707.47;5089544;28;20031;-93
2022/07/28 03:44:56;;;;;;;6.78;2.22;;;;;;;13.78;100.00;98688.59;5099507;28;20487;-93
2022/07/28 03:47:23;;;;;;;7.63;2.42;;;;;;;13.94;100.00;98686.47;5095114;28;20031;-93
2022/07/28 03:49:51;;;;;;;5.85;2.13;;;;;;;14.02;100.00;98691.53;5091690;28;20431;-92
2022/07/28 03:52:20;;;;;;;7.60;2.13;;;;;;;13.82;100.00;98686.78;5091525;28;20140;-93
2022/07/28 03:54:46;;;;;;;8.25;2.15;;;;;;;13.92;100.00;98693.50;5086700;28;20154;-93
2022/07/28 03:57:11;;;;;;;8.98;2.70;;;;;;;13.94;100.00;98696.09;5095857;28;20102;-93
2022/07/28 03:59:37;;;;;;;7.53;2.67;;;;;;;14.04;100.00;98696.75;5094425;28;20031;-93
2022/07/28 04:02:03;;;;;;;6.68;2.20;;;;;;;13.87;100.00;98703.25;5096405;28;20040;-93
2022/07/28 04:04:29;;;;;;;9.05;2.75;;;;;;;13.78;100.00;98698.22;5091539;28;20027;-92
2022/07/28 04:06:54;;;;;;;7.03;2.40;;;;;;;13.92;100.00;98695.28;5092329;28;20035;-93
2022/07/28 04:09:19;;;;;;;8.27;2.80;;;;;;;13.72;100.00;98700.97;5092189;28;20028;-92
2022/07/28 04:11:45;;;;;;;6.85;2.63;;;;;;;14.16;100.00;98699.06;5095851;28;20793;-92
2022/07/28 04:14:11;;;;;;;8.43;2.80;;;;;;;14.32;100.00;98679.44;5096356;28;20031;-93
2022/07/28 04:16:36;;;;;;;8.02;2.90;;;;;;;14.20;100.00;98682.34;5092554;28;20510;-92
2022/07/28 04:19:02;;;;;;;9.73;3.00;;;;;;;14.28;100.00;98685.66;5092884;28;20031;-92
2022/07/28 04:21:27;;;;;;;9.95;2.85;;;;;;;14.09;100.00;98693.09;5090430;28;20368;-92
2022/07/28 04:23:53;;;;;;;7.63;2.33;;;;;;;14.21;100.00;98689.34;5094972;28;20031;-92
2022/07/28 04:26:18;;;;;;;7.78;2.70;;;;;;;14.19;100.00;98683.25;5090988;28;20036;-92
2022/07/28 04:28:45;;;;;;;7.65;2.38;;;;;;;14.29;100.00;98687.38;5095128;28;20137;-92
2022/07/28 04:31:10;;;;;;;6.97;2.47;;;;;;;14.49;100.00;98678.13;5092709;28;20032;-93
2022/07/28 04:33:36;;;;;;;6.90;2.35;;;;;;;14.10;100.00;98675.63;5095511;28;20399;-92
2022/07/28 04:36:02;;;;;;;8.20;2.88;;;;;;;14.02;100.00;98691.53;5090566;28;20114;-93
2022/07/28 04:38:28;;;;;;;7.40;2.65;;;;;;;13.99;100.00;98687.22;5093278;28;20107;-92
2022/07/28 04:40:54;;;;;;;8.73;2.75;;;;;;;13.97;100.00;98698.63;5096690;28;20476;-93
2022/07/28 04:43:20;;;;;;;9.85;2.65;;;;;;;14.12;100.00;98700.88;5088553;28;20031;-91
2022/07/28 04:45:46;;;;;;;7.93;3.08;;;;;;;13.72;100.00;98708.84;5097843;28;20043;-91
2022/07/28 04:48:12;;;;;;;7.95;2.85;;;;;;;13.79;100.00;98724.41;5092040;28;20046;-93
2022/07/28 04:50:41;;;;;;;9.45;3.00;;;;;;;13.88;100.00;98727.72;5093084;28;20039;-93
2022/07/28 04:53:06;;;;;;;9.70;3.00;;;;;;;13.62;100.00;98719.50;5098722;28;20016;-92
2022/07/28 04:55:32;;;;;;;10.98;3.20;;;;;;;13.62;100.00;98730.00;5091957;28;20467;-91
2022/07/28 04:57:57;;;;;;;8.25;2.90;;;;;;;13.30;100.00;98739.41;5095607;28;20028;-94
2022/07/28 05:00:23;;;;;;;9.82;3.22;;;;;;;13.16;100.00;98746.66;5092777;28;20087;-94
2022/07/28 05:02:50;;;;;;;10.13;3.38;;;;;;;13.25;100.00;98756.94;5095948;28;20028;-92
2022/07/28 05:05:16;;;;;;;8.95;3.20;;;;;;;13.04;100.00;98754.72;5096898;28;20027;-91
2022/07/28 05:07:41;;;;;;;9.63;3.15;;;;;;;13.42;100.00;98759.25;5095931;28;20024;-92
2022/07/28 05:10:09;;;;;;;9.68;3.50;;;;;;;13.29;100.00;98765.59;5091934;28;20035;-92
2022/07/28 05:12:34;;;;;;;8.68;3.10;;;;;;;13.61;100.00;98764.09;5092273;27;20027;-93
2022/07/28 05:15:00;;;;;;;10.88;3.28;;;;;;;13.57;100.00;98758.06;5096724;28;20028;-92
2022/07/28 05:17:26;;;;;;;7.88;3.03;;;;;;;13.44;100.00;98765.34;5091922;28;20041;-94
2022/07/28 05:19:52;;;;;;;11.02;3.20;;;;;;;13.49;100.00;98745.13;5091190;28;20650;-93
2022/07/28 05:22:18;;;;;;;11.23;3.17;;;;;;;13.78;100.00;98756.75;5091250;28;20106;-93
2022/07/28 05:24:43;;;;;;;7.95;3.15;;;;;;;13.92;100.00;98756.44;5092820;28;20023;-92
2022/07/28 05:27:10;;;;;;;7.68;2.90;;;;;;;14.04;100.00;98750.03;5092811;28;20032;-94
2022/07/28 05:29:40;;;;;;;8.63;3.15;;;;;;;14.02;100.00;98745.75;5095691;28;20031;-95
2022/07/28 05:32:07;;;;;;;9.00;2.92;;;;;;;13.98;100.00;98732.69;5097960;28;20541;-93
2022/07/28 05:34:33;;;;;;;8.52;2.88;;;;;;;13.72;100.00;98732.44;5092692;28;20475;-93
2022/07/28 05:37:01;;;;;;;7.65;2.95;;;;;;;14.17;100.00;98733.13;5091404;28;20028;-93
2022/07/28 05:39:27;;;;;;;8.15;2.78;;;;;;;14.05;100.00;98728.16;5094444;28;20741;-93
2022/07/28 05:41:53;;;;;;;10.13;2.90;;;;;;;13.96;100.00;98725.78;5095307;28;20042;-93
2022/07/28 05:44:18;;;;;;;9.38;3.58;;;;;;;14.21;100.00;98718.19;5096038;28;20031;-93
2022/07/28 05:46:44;;;;;;;9.52;3.10;;;;;;;14.17;100.00;98716.53;5099417;28;20038;-93
2022/07/28 05:49:09;;;;;;;10.13;3.20;;;;;;;14.12;100.00;98721.88;5096305;28;20088;-93
2022/07/28 05:51:35;;;;;;;8.65;3.10;;;;;;;14.39;100.00;98724.75;5090539;28;20162;-93
2022/07/28 05:54:00;;;;;;;10.05;3.28;;;;;;;16.16;100.00;98662.75;5089690;28;20058;-93
2022/07/28 05:56:26;;;;;;;10.38;3.47;;;;;;;15.75;100.00;98636.00;5115602;27;20036;-93
2022/07/28 05:58:52;;;;;;;8.55;3.10;;;;;;;15.58;100.00;98634.75;5091885;28;20092;-93
2022/07/28 06:01:17;;;;;;;12.05;3.50;;;;;;;16.71;100.00;98607.31;5092636;28;20106;-93
2022/07/28 06:03:43;;;;;;;10.02;3.38;;;;;;;15.70;100.00;98604.59;5095632;27;20084;-93
2022/07/28 06:06:09;;;;;;;11.32;3.88;;;;;;;16.79;100.00;98599.13;5093572;28;20043;-93
2022/07/28 06:08:36;;;;;;;7.68;3.30;;;;;;;15.28;100.00;98610.28;5093965;28;20049;-93
2022/07/28 06:11:08;;;;;;;9.95;3.25;;;;;;;16.23;100.00;98630.06;5088632;28;21036;-94
2022/07/28 06:13:35;;;;;;;8.45;2.88;;;;;;;16.50;100.00;98622.09;5092873;28;20049;-94
2022/07/28 06:16:01;;;;;;;12.40;3.38;;;;;;;16.86;100.00;98609.38;5091821;28;20649;-94
2022/07/28 06:18:26;;;;;;;9.80;3.25;;;;;;;16.52;100.00;98609.72;5089830;28;20027;-93
2022/07/28 06:20:52;;;;;;;12.20;3.15;;;;;;;16.67;100.00;98603.94;5094693;28;20030;-93
2022/07/28 06:23:20;;;;;;;11.20;3.60;;;;;;;16.93;100.00;98596.03;5094356;28;20080;-94
2022/07/28 06:25:46;;;;;;;8.82;3.25;;;;;;;17.39;100.00;98589.81;5093603;28;20407;-93
2022/07/28 06:28:12;;;;;;;8.38;3.30;;;;;;;17.47;100.00;98592.16;5092208;28;20135;-93
2022/07/28 06:30:38;;;;;;;9.10;3.30;;;;;;;16.50;100.00;98606.31;5095846;28;20047;-92
2022/07/28 06:33:06;;;;;;;8.88;3.10;;;;;;;17.35;100.00;98604.03;5093137;28;20028;-94
2022/07/28 06:35:32;;;;;;;12.60;3.70;;;;;;;17.21;100.00;98601.94;5089093;28;20024;-93
2022/07/28 06:37:58;;;;;;;8.98;3.45;;;;;;;18.60;100.00;98590.09;5094092;28;20030;-94
2022/07/28 06:40:24;;;;;;;10.52;3.40;;;;;;;16.90;100.00;98604.91;5090203;28;20039;-94
2022/07/28 06:42:50;;;;;;;10.63;3.00;;;;;;;17.14;100.00;98613.63;5092703;28;20023;-94
2022/07/28 06:45:17;;;;;;;9.30;2.97;;;;;;;18.31;100.00;98609.88;5096681;28;20258;-94
2022/07/28 06:47:42;;;;;;;9.25;3.20;;;;;;;17.86;100.00;98593.25;5094152;28;20028;-94
2022/07/28 06:50:08;;;;;;;11.20;3.83;;;;;;;18.86;100.00;98586.28;5094784;28;20032;-94
2022/07/28 06:52:35;;;;;;;11.13;3.38;;;;;;;16.88;100.00;98619.84;5087439;28;20031;-93
2022/07/28 06:55:01;;;;;;;11.35;3.67;;;;;;;15.93;100.00;98624.06;5089445;28;20040;-94
2022/07/28 06:57:27;;;;;;;8.45;3.15;;;;;;;15.45;100.00;98646.53;5092956;28;20042;-95
2022/07/28 06:59:53;;;;;;;10.18;3.22;;;;;;;15.45;100.00;98662.31;5093553;28;20027;-94
2022/07/28 07:02:18;;;;;;;9.38;3.45;;;;;;;15.35;100.00;98667.88;5093393;28;20032;-94
2022/07/28 07:04:45;;;;;;;9.80;3.55;;;;;;;15.21;100.00;98679.69;5090013;28;20031;-95
2022/07/28 07:07:10;;;;;;;8.48;3.00;;;;;;;15.84;100.00;98662.03;5092163;28;20055;-92
2022/07/28 07:09:36;;;;;;;11.65;3.20;;;;;;;16.04;100.00;98648.22;5093827;28;20059;-94
2022/07/28 07:12:02;;;;;;;11.38;3.78;;;;;;;16.17;100.00;98631.13;5088043;28;20039;-94
2022/07/28 07:14:28;;;;;;;9.32;3.08;;;;;;;16.42;100.00;98637.31;5093696;28;20032;-92
2022/07/28 07:16:54;;;;;;;7.63;3.05;;;;;;;15.08;100.00;98656.41;5095054;27;20596;-93
2022/07/28 07:19:22;;;;;;;8.05;3.20;;;;;;;14.94;100.00;98683.06;5097344;28;20026;-93
2022/07/28 07:21:48;;;;;;;8.25;2.90;;;;;;;15.30;100.00;98687.31;5090994;28;20035;-93
2022/07/28 07:24:14;;;;;;;8.15;2.63;;;;;;;15.38;100.00;98674.81;5094150;28;20028;-94
2022/07/28 07:26:42;;;;;;;11.25;3.47;;;;;;;15.73;100.00;98664.97;5094548;28;21206;-94
2022/07/28 07:29:08;;;;;;;7.55;2.90;;;;;;;15.21;100.00;98663.91;5092152;28;20104;-93
2022/07/28 07:31:35;;;;;;;12.15;3.33;;;;;;;15.82;100.00;98676.97;5100537;28;20028;-94
2022/07/28 07:34:00;;;;;;;10.45;3.55;;;;;;;15.95;100.00;98669.56;5091327;28;20131;-93
2022/07/28 07:36:26;;;;;;;11.35;3.58;;;;;;;15.96;100.00;98666.88;5096290;28;20619;-95
2022/07/28 07:38:51;;;;;;;10.95;3.78;;;;;;;15.63;100.00;98660.88;5093306;28;20070;-94
2022/07/28 07:41:18;;;;;;;11.23;4.00;;;;;;;15.88;100.00;98676.81;5096359;28;20491;-96
2022/07/28 07:43:46;;;;;;;12.35;4.10;;;;;;;15.86;100.00;98678.59;5101425;28;20115;-96
2022/07/28 07:46:12;;;;;;;11.75;3.95;;;;;;;15.62;100.00;98667.06;5103117;28;20737;-95
2022/07/28 07:48:38;;;;;;;11.75;4.50;;;;;;;15.79;100.00;98671.81;5102419;28;20180;-94
2022/07/28 07:51:04;;;;;;;10.48;4.10;;;;;;;15.77;100.00;98673.59;5098792;28;20072;-95
2022/07/28 07:53:29;;;;;;;10.27;4.00;;;;;;;16.47;100.00;98659.06;5097234;28;20027;-95
2022/07/28 07:55:55;;;;;;;12.43;4.35;;;;;;;16.14;100.00;98659.31;5090287;28;20128;-96
2022/07/28 07:58:21;;;;;;;9.77;4.70;;;;;;;16.23;100.00;98663.38;5092594;28;21021;-96
2022/07/28 08:00:47;;;;;;;13.48;4.10;;;;;;;15.67;100.00;98681.78;5094892;28;20032;-94
2022/07/28 08:03:15;;;;;;;11.88;4.35;;;;;;;15.53;100.00;98683.97;5094738;28;20035;-94
2022/07/28 08:05:40;;;;;;;10.60;3.92;;;;;;;15.35;100.00;98694.16;5095911;28;20019;-94
2022/07/28 08:08:07;;;;;;;9.63;4.13;;;;;;;15.01;100.00;98707.38;5094271;28;20032;-94
2022/07/28 08:10:34;;;;;;;9.75;4.18;;;;;;;15.31;100.00;98676.75;5094711;28;21639;-94
2022/07/28 08:12:59;;;;;;;13.75;4.25;;;;;;;15.53;100.00;98689.22;5095354;28;20027;-96
2022/07/28 08:15:25;;;;;;;13.63;4.40;;;;;;;15.51;100.00;98680.53;5093307;28;20483;-93
2022/07/28 08:17:51;;;;;;;12.68;4.80;;;;;;;16.08;100.00;98681.41;5091299;28;20028;-94
2022/07/28 08:20:17;;;;;;;10.55;4.50;;;;;;;16.80;100.00;98664.03;5099993;28;20024;-93
2022/07/28 08:22:51;;;;;;;12.63;4.63;;;;;;;15.28;100.00;98696.97;5115535;27;20066;-96
2022/07/28 08:25:17;;;;;;;12.30;4.82;;;;;;;15.39;100.00;98715.06;5097958;28;20031;-94
2022/07/28 08:27:43;;;;;;;13.70;5.00;;;;;;;16.52;100.00;98676.44;5097509;28;20163;-93
2022/07/28 08:30:10;;;;;;;11.50;5.22;;;;;;;17.09;100.00;98672.69;5097421;28;20053;-93
2022/07/28 08:32:37;;;;;;;10.52;4.57;;;;;;;16.84;100.00;98661.25;5096174;28;20052;-95
2022/07/28 08:35:04;;;;;;;11.15;4.75;;;;;;;17.44;100.00;98657.31;5094209;28;20873;-94
2022/07/28 08:40:55;;;;;;;11.23;5.18;;;;;;;17.27;100.00;98653.59;5096152;28;20046;-94
2022/07/28 08:43:37;;;;;;;14.15;5.63;;;;;;;17.77;100.00;98638.47;5090156;28;20047;-94
2022/07/28 08:46:05;;;;;;;10.98;4.88;;;;;;;17.66;100.00;98645.03;5087359;28;21729;-92
2022/07/28 08:48:35;;;;;;;10.32;4.88;;;;;;;17.37;100.00;98647.03;5086317;28;20054;-92
2022/07/28 08:51:03;;;;;;;14.13;5.40;;;;;;;17.33;100.00;98648.06;5093642;28;20023;-94
2022/07/28 08:53:34;;;;;;;13.43;5.57;;;;;;;17.19;100.00;98648.59;5089842;28;20338;-92
2022/07/28 08:56:13;;;;;;;13.13;5.40;;;;;;;17.38;100.00;98648.75;5089918;28;20131;-92
2022/07/28 08:58:44;;;;;;;12.75;5.72;;;;;;;17.82;100.00;98654.97;5093868;28;20024;-90
2022/07/28 09:01:09;;;;;;;15.05;5.65;;;;;;;16.94;100.00;98664.47;5091115;28;20100;-92
2022/07/28 09:03:37;;;;;;;13.93;5.65;;;;;;;16.89;100.00;98677.78;5090218;28;20815;-92
2022/07/28 09:06:03;;;;;;;14.57;5.80;;;;;;;17.38;100.00;98671.59;5089125;28;20063;-92
2022/07/28 09:08:29;;;;;;;13.95;5.82;;;;;;;17.25;100.00;98663.31;5090837;28;20143;-92
2022/07/28 09:10:55;;;;;;;15.20;5.82;;;;;;;17.97;100.00;98662.28;5093493;28;20143;-90
2022/07/28 09:13:21;;;;;;;14.18;6.05;;;;;;;17.44;100.00;98658.19;5091870;28;20659;-93
2022/07/28 09:15:47;;;;;;;13.57;5.93;;;;;;;17.53;100.00;98660.47;5088385;28;20076;-91
2022/07/28 09:18:16;;;;;;;12.15;6.50;;;;;;;17.50;100.00;98651.81;5093439;28;20027;-90
2022/07/28 09:20:43;;;;;;;14.07;6.32;;;;;;;17.98;100.00;98650.81;5095144;28;20035;-93
2022/07/28 09:23:10;;;;;;;13.65;5.90;;;;;;;18.13;100.00;98643.19;5094135;28;20031;-91
2022/07/28 09:25:36;;;;;;;14.50;5.72;;;;;;;17.92;100.00;98643.13;5094491;28;20031;-91
2022/07/28 09:28:28;;;;;;;13.48;5.35;;;;;;;18.05;100.00;98643.50;5091801;28;20415;-91
2022/07/28 09:30:53;;;;;;;14.52;5.38;;;;;;;18.26;100.00;98628.56;5091713;28;20039;-92
2022/07/28 09:33:25;;;;;;;13.88;5.22;;;;;;;18.55;100.00;98626.41;5093922;28;20035;-92
2022/07/28 09:35:56;;;;;;;11.70;5.15;;;;;;;18.57;100.00;98624.59;5095268;28;20064;-92
2022/07/28 09:38:26;;;;;;;12.85;5.15;;;;;;;19.13;100.00;98620.34;5098545;28;20028;-90
2022/07/28 09:40:57;;;;;;;11.50;5.43;;;;;;;19.52;100.00;98608.81;5098852;28;20050;-91
2022/07/28 09:43:44;;;;;;;13.55;5.85;;;;;;;18.97;100.00;98609.63;5088582;28;20043;-92
2022/07/28 09:46:14;;;;;;;10.57;4.00;;;;;;;19.28;100.00;98618.78;5088659;28;20023;-92
2022/07/28 09:48:49;;;;;;;10.20;4.47;;;;;;;19.50;100.00;98609.81;5093306;28;20511;-91
2022/07/28 09:51:17;;;;;;;11.68;4.68;;;;;;;19.77;100.00;98611.09;5091419;28;20483;-92
2022/07/28 09:53:43;;;;;;;10.85;3.95;;;;;;;18.67;100.00;98604.75;5098376;28;20085;-90
2022/07/28 09:56:10;;;;;;;12.38;3.80;;;;;;;19.08;100.00;98609.97;5093208;28;20931;-94
2022/07/28 09:58:37;;;;;;;9.77;3.90;;;;;;;19.48;100.00;98609.03;5085616;28;20039;-92
2022/07/28 10:01:03;;;;;;;10.75;4.03;;;;;;;18.86;100.00;98614.47;5089405;28;20027;-93
2022/07/28 10:03:29;;;;;;;10.48;4.45;;;;;;;20.12;100.00;98599.72;5093011;28;20030;-93
2022/07/28 10:05:57;;;;;;;12.70;4.72;;;;;;;20.02;100.00;98601.97;5097047;28;20016;-93
2022/07/28 10:08:44;;;;;;;9.60;4.30;;;;;;;20.28;100.00;98603.31;5095024;28;20952;-92
2022/07/28 10:11:12;;;;;;;9.15;4.20;;;;;;;20.41;100.00;98598.22;5092556;28;20039;-92
2022/07/28 10:13:54;;;;;;;11.55;4.35;;;;;;;19.14;100.00;98607.97;5093092;28;20352;-93
2022/07/28 10:16:22;;;;;;;12.10;4.32;;;;;;;19.21;100.00;98606.78;5095141;28;20541;-92
2022/07/28 10:18:47;;;;;;;13.05;4.90;;;;;;;19.68;100.00;98606.28;5089820;28;20355;-91
2022/07/28 10:21:16;;;;;;;11.75;4.30;;;;;;;19.50;100.00;98613.31;5091497;28;20139;-95
2022/07/28 10:23:47;;;;;;;14.95;4.57;;;;;;;19.68;100.00;98602.75;5089757;28;20467;-93
2022/07/28 10:26:14;;;;;;;11.30;4.15;;;;;;;19.40;100.00;98609.38;5095961;28;20114;-93
2022/07/28 10:28:46;;;;;;;16.42;5.25;;;;;;;19.08;100.00;98620.56;5096106;28;20058;-93
2022/07/28 10:31:16;;;;;;;11.73;4.90;;;;;;;19.39;100.00;98615.63;5092714;28;20048;-93
2022/07/28 10:33:49;;;;;;;13.68;4.75;;;;;;;20.40;100.00;98601.84;5086870;28;20110;-94
2022/07/28 10:36:21;;;;;;;10.50;4.68;;;;;;;20.42;100.00;98594.66;5096160;28;20024;-93
2022/07/28 10:38:48;;;;;;;10.88;4.72;;;;;;;20.71;100.00;98592.31;5093418;28;20046;-94
2022/07/28 10:41:15;;;;;;;13.52;4.78;;;;;;;20.14;100.00;98608.47;5093988;28;20020;-93
2022/07/28 10:43:43;;;;;;;11.63;5.40;;;;;;;19.74;100.00;98608.63;5095873;28;20036;-93
2022/07/28 10:46:09;;;;;;;10.60;4.20;;;;;;;19.51;100.00;98600.94;5094112;28;20027;-93
2022/07/28 10:48:39;;;;;;;16.05;4.50;;;;;;;19.64;100.00;98606.50;5090753;28;20038;-93
2022/07/28 10:51:05;;;;;;;8.43;3.50;;;;;;;19.63;100.00;98602.16;5090005;28;20026;-94
2022/07/28 10:53:54;;;;;;;13.15;3.50;;;;;;;20.12;100.00;98595.31;5097670;28;20116;-94
2022/07/28 10:56:47;;;;;;;10.38;3.92;;;;;;;20.25;100.00;98600.81;5098426;28;20040;-93
2022/07/28 10:59:44;;;;;;;7.13;2.92;;;;;;;20.89;100.00;98593.13;5094298;28;20032;-94
2022/07/28 11:02:49;;;;;;;13.23;3.70;;;;;;;22.69;100.00;98586.38;5096392;28;20525;-93
2022/07/28 11:05:33;;;;;;;11.25;3.60;;;;;;;21.19;100.00;98599.47;5091479;28;20582;-93
2022/07/28 11:08:25;;;;;;;12.32;3.72;;;;;;;21.29;100.00;98592.72;5093955;28;20028;-94
2022/07/28 11:11:13;;;;;;;10.10;4.07;;;;;;;19.78;100.00;98594.31;5086990;28;20059;-93
2022/07/28 11:13:38;;;;;;;9.38;3.13;;;;;;;18.91;100.00;98612.53;5089862;28;20035;-92
2022/07/28 11:16:13;;;;;;;9.75;3.20;;;;;;;19.00;100.00;98619.16;5092611;28;20032;-92
2022/07/28 11:19:00;;;;;;;8.75;2.97;;;;;;;18.74;100.00;98616.75;5090707;28;20039;-93
2022/07/28 11:21:26;;;;;;;10.70;3.45;;;;;;;19.58;100.00;98602.34;5091395;28;20062;-93
2022/07/28 11:23:56;;;;;;;8.13;2.58;;;;;;;20.87;100.00;98596.78;5091019;28;20036;-93
2022/07/28 11:26:22;;;;;;;10.13;3.17;;;;;;;21.35;100.00;98592.38;5090467;28;20032;-93
2022/07/28 11:28:56;;;;;;;10.18;3.05;;;;;;;21.47;100.00;98590.81;5096530;28;20041;-92
2022/07/28 11:31:44;;;;;;;10.13;2.67;;;;;;;21.42;100.00;98587.56;5093221;28;20107;-93
2022/07/28 11:34:13;;;;;;;9.05;3.38;;;;;;;22.17;100.00;98579.72;5090229;28;20104;-94
2022/07/28 11:37:01;;;;;;;11.55;3.00;;;;;;;21.57;100.00;98578.78;5099045;28;20028;-94